Detall de PIREP

Printer-friendly versionPDF version

[2012/12/12 11:24:00]
Flight IATA:CT1005
Pilot Number:011
Company ICAO:CAT
Aircraft Type:F28/A
PAX:85
Departing Airport: LHSM
Destination Airport: LRCK
Alternate Airport:LROP
Online: VATSIM
Route:SUNOR UM986 SVR UY570 MAVIR UL606 TSR T2 UREKI UL851 RIVOS
Flight Level:F300
No Slew and time accel
No pause
Crash detect
Detect pilot in Cockpit between each 30 and 45 minutes
11:24 Zero fuel Weight: 59657 Lbs, Fuel Weight: 13154 Lbs
11:24 VATSIM:LHSM 121045Z 34015KT 9999 FEW035 M00/M10 Q1022 NOSIG
11:24 VATSIM:LRCK 121100Z 24019KT 9999 BKN013 M01/M04 Q1009 36210195 TEMPO BKN015
11:29 Parking Brakes off
11:34 Take-off
11:34 Take off Weight: 72389 Lbs
11:34 Wind: 338º @ 015 Knots Heading: 344º
11:34 POS N46º 41´ 07´´ E017º 09´ 33´´
11:34 Gear Up: 148 Knots
11:34 Flaps:3 at 148 Knots
11:35 Flaps:2 at 186 Knots
11:35 Flaps:1 at 188 Knots
11:35 Flaps:0 at 189 Knots
11:49Wind:317º@056 Knots Heading: 111º Ground Speed: 350 Knots Altitude 25921 ft
11:52 TOC
11:52 Fuel Weight: 10395 Lb
12:04 Wind:295º@056 Knots Heading: 110º Ground Speed: 493 Knots Altitude 30134 ft
12:19 Wind:283º@051 Knots Heading: 089º Ground Speed: 488 Knots Altitude 29983 ft
12:34 Wind:250º@039 Knots Heading: 117º Ground Speed: 458 Knots Altitude 29898 ft
12:37 TOD
12:37 Fuel Weight: 7044 Lb
12:49 Wind:240º@044 Knots Heading: 125º Ground Speed: 352 Knots Altitude 12427 ft
12:56 Flaps:1 at 223 Knots
12:56 Flaps:2 at 210 Knots
12:57 Flaps:3 at 174 Knots
13:00 Flaps:4 at 165 Knots
13:00 Gear Down: 163 Knots
13:00 Flaps:3 at 149 Knots
13:00 Flaps:4 at 149 Knots
13:00 Flaps:5 at 149 Knots
13:04 Wind:236º@016 Knots Heading: 359º Ground Speed: 137 Knots Altitude 554 ft
13:04 TouchDown:Rate -227 ft/min Speed: 110 Knots
13:04 VATSIM:LRCK 121230Z 24016KT 8000 BKN017 M00/M04 Q1010 36210195 TEMPO BKN015
13:04 Land
13:04 Wind:236º@016 Knots
13:04 Heading: 009º
13:04 Flight Duration: 01:30
13:04 Landing Weight: 65347 Lbs
13:04 POS N44º 22´ 05´´ E028º 29´ 21´´
13:11 Parking brakes on
13:11 Block to Block Duration: 01:42
13:11 Final Fuel: 5412 Lbls
13:11 Spent Fuel: 7742 Lbls
13:11 Flight Length: 245 NM
13:11 TOD Land Length: 66 NM

Exportar CSV

Powered by Drupal - Modified by Danger4k